Archival Weather

Rochelle Muni/Koritz Fld

Rochelle, Illinois (KRPJ)

Report from: Sunday, February 5, 2023 9:35 AM CST
Current time: Friday, June 21, 2024 8:07 PM CDT

Current weather – Weather history – Daily summaries
Weather forecast

Temperature0.4°C (32.7°F)
Wind chill-4.8°C (23.4°F)
Dew point-1.0°C (30.2°F)
Winds 11 kts (5.7 m/s, 12.7 mph) West (270°)
Visibility10 mi. (16.1 km)
Clouds Sky clear
Altimeter29.88 in.Hg (1012 mB)
Relative humidity90 %
Density altitude-1,649 ft. (-502 m)
Remarks Fully automated report
Automated weather observing station with precipitation discriminator
Lightning detection system not operating
Flight conditions Visual Meteorological Conditions
Raw dataKRPJ 051535Z AUTO 27011KT 10SM CLR 00/M01 A2988 RMK AO2 T00041010 TSNO
An error has occurred. This application may no longer respond until reloaded. Reload 🗙